PWSweather.com
Personal Weather Stations
Station Observations
AKANCHO109
Seawind Drive, Anchorage, AK 99516

Seawind DriveAnchorage, AK 99516

Lat: 61.0988, Lon: -149.8265

Elevation: 280

Station Type: Davis Vantage Pro

http://www.willowweather.com/anchorage/wx.html

Latest ConditionsUpdated 4:27:10 AM AKST Friday, Feb 22, 2019
Currently Today's Max Today's Min Today's Average
Temperature 13.8°F-10.1°C 23.1°F-4.9°C 13.8°F-10.1°C 18.8°F-7.3°C
Dew Point 8.0°F-13.3°C 12.8°F-10.7°C 7.9°F-13.4°C 10.9°F-11.7°C
Winds Calm Calm 1.2 mph -1.9 kmh - - 0.0 mph 0.0 kmh
Wind Gusts -- 3.5 mph5.6 kmh - -
Humidity 77% 79% 64% 71%
Pressure 30.13 in1020.3 mb 30.13 in1020.3 mb 30.06 in1017.9 mb -
Hour Temp Dew Point Humidity Winds Wind Gusts Pressure Precip Precip Rate Daily Precip Total
04:27 AM 13.8°F-10.1°C 8.0°F-13.3°C 77% Calm Calm -- 30.13 in1020.3 mb - 0.00 in0.0 mm 0.00 in0.0 mm
04:26 AM 13.9°F-10.1°C 8.0°F-13.3°C 77% Calm Calm -- 30.13 in1020.3 mb - 0.00 in0.0 mm 0.00 in0.0 mm
04:25 AM 13.9°F-10.1°C 8.1°F-13.3°C 77% Calm Calm -- 30.13 in1020.3 mb - 0.00 in0.0 mm 0.00 in0.0 mm
04:24 AM 14.0°F-10.0°C 8.1°F-13.3°C 77% Calm Calm -- 30.12 in1020.0 mb - 0.00 in0.0 mm 0.00 in0.0 mm
04:23 AM 14.0°F-10.0°C 8.2°F-13.2°C 77% Calm Calm -- 30.12 in1020.0 mb - 0.00 in0.0 mm 0.00 in0.0 mm
04:22 AM 14.1°F-9.9°C 8.2°F-13.2°C 77% Calm Calm -- 30.13 in1020.3 mb - 0.00 in0.0 mm 0.00 in0.0 mm
04:21 AM 14.1°F-9.9°C 8.2°F-13.2°C 77% Calm Calm -- 30.13 in1020.3 mb - 0.00 in0.0 mm 0.00 in0.0 mm
04:20 AM 14.1°F-9.9°C 7.9°F-13.4°C 76% Calm Calm -- 30.13 in1020.3 mb - 0.00 in0.0 mm 0.00 in0.0 mm
04:19 AM 14.2°F-9.9°C 8.0°F-13.3°C 76% Calm Calm -- 30.12 in1020.0 mb - 0.00 in0.0 mm 0.00 in0.0 mm
04:18 AM 14.3°F-9.8°C 8.1°F-13.3°C 76% Calm Calm -- 30.12 in1020.0 mb - 0.00 in0.0 mm 0.00 in0.0 mm
04:17 AM 14.3°F-9.8°C 8.1°F-13.3°C 76% Calm Calm -- 30.12 in1020.0 mb - 0.00 in0.0 mm 0.00 in0.0 mm
04:16 AM 14.3°F-9.8°C 8.1°F-13.3°C 76% Calm Calm -- 30.12 in1020.0 mb - 0.00 in0.0 mm 0.00 in0.0 mm
04:15 AM 14.3°F-9.8°C 8.1°F-13.3°C 76% Calm Calm -- 30.12 in1020.0 mb - 0.00 in0.0 mm 0.00 in0.0 mm
04:14 AM 14.4°F-9.8°C 8.2°F-13.2°C 76% Calm Calm -- 30.12 in1020.0 mb - 0.00 in0.0 mm 0.00 in0.0 mm
04:13 AM 14.4°F-9.8°C 8.3°F-13.2°C 76% Calm Calm -- 30.12 in1020.0 mb - 0.00 in0.0 mm 0.00 in0.0 mm
04:12 AM 14.5°F-9.7°C 8.3°F-13.2°C 76% Calm Calm -- 30.12 in1020.0 mb - 0.00 in0.0 mm 0.00 in0.0 mm
04:11 AM 14.6°F-9.7°C 8.4°F-13.1°C 76% Calm Calm -- 30.12 in1020.0 mb - 0.00 in0.0 mm 0.00 in0.0 mm
04:10 AM 14.6°F-9.7°C 8.5°F-13.1°C 76% Calm Calm -- 30.12 in1020.0 mb - 0.00 in0.0 mm 0.00 in0.0 mm
04:09 AM 14.7°F-9.6°C 8.6°F-13.0°C 76% Calm Calm -- 30.12 in1020.0 mb - 0.00 in0.0 mm 0.00 in0.0 mm
04:08 AM 14.8°F-9.6°C 8.6°F-13.0°C 76% Calm Calm -- 30.12 in1020.0 mb - 0.00 in0.0 mm 0.00 in0.0 mm
04:07 AM 14.8°F-9.6°C 8.4°F-13.1°C 75% Calm Calm -- 30.12 in1020.0 mb - 0.00 in0.0 mm 0.00 in0.0 mm
04:06 AM 14.9°F-9.5°C 8.4°F-13.1°C 75% Calm Calm -- 30.12 in1020.0 mb - 0.00 in0.0 mm 0.00 in0.0 mm
04:05 AM 14.9°F-9.5°C 8.5°F-13.1°C 75% Calm Calm -- 30.12 in1020.0 mb - 0.00 in0.0 mm 0.00 in0.0 mm
04:04 AM 15.0°F-9.4°C 8.5°F-13.1°C 75% Calm Calm -- 30.12 in1020.0 mb - 0.00 in0.0 mm 0.00 in0.0 mm
04:03 AM 15.1°F-9.4°C 8.6°F-13.0°C 75% Calm Calm -- 30.12 in1020.0 mb - 0.00 in0.0 mm 0.00 in0.0 mm
04:02 AM 15.2°F-9.3°C 8.7°F-12.9°C 75% Calm Calm -- 30.12 in1020.0 mb - 0.00 in0.0 mm 0.00 in0.0 mm
04:01 AM 15.2°F-9.3°C 8.7°F-12.9°C 75% Calm Calm -- 30.12 in1020.0 mb - 0.00 in0.0 mm 0.00 in0.0 mm
04:00 AM 15.3°F-9.3°C 8.8°F-12.9°C 75% Calm Calm -- 30.12 in1020.0 mb - 0.00 in0.0 mm 0.00 in0.0 mm
03:59 AM 15.4°F-9.2°C 8.9°F-12.8°C 75% Calm Calm -- 30.12 in1020.0 mb - 0.00 in0.0 mm 0.00 in0.0 mm
03:58 AM 15.5°F-9.2°C 9.0°F-12.8°C 75% Calm Calm -- 30.12 in1020.0 mb - 0.00 in0.0 mm 0.00 in0.0 mm
03:57 AM 15.5°F-9.2°C 9.0°F-12.8°C 75% Calm Calm -- 30.12 in1020.0 mb - 0.00 in0.0 mm 0.00 in0.0 mm
03:56 AM 15.6°F-9.1°C 9.1°F-12.7°C 75% Calm Calm -- 30.12 in1020.0 mb - 0.00 in0.0 mm 0.00 in0.0 mm
03:55 AM 15.7°F-9.1°C 9.2°F-12.7°C 75% Calm Calm -- 30.12 in1020.0 mb - 0.00 in0.0 mm 0.00 in0.0 mm
03:54 AM 15.7°F-9.1°C 9.2°F-12.7°C 75% Calm Calm -- 30.12 in1020.0 mb - 0.00 in0.0 mm 0.00 in0.0 mm
03:53 AM 15.8°F-9.0°C 9.3°F-12.6°C 75% Calm Calm -- 30.12 in1020.0 mb - 0.00 in0.0 mm 0.00 in0.0 mm
03:52 AM 15.9°F-8.9°C 9.4°F-12.6°C 75% Calm Calm -- 30.12 in1020.0 mb - 0.00 in0.0 mm 0.00 in0.0 mm
03:51 AM 16.0°F-8.9°C 9.4°F-12.6°C 75% Calm Calm -- 30.12 in1020.0 mb - 0.00 in0.0 mm 0.00 in0.0 mm
03:50 AM 16.0°F-8.9°C 9.2°F-12.7°C 74% Calm Calm -- 30.12 in1020.0 mb - 0.00 in0.0 mm 0.00 in0.0 mm
03:49 AM 16.1°F-8.8°C 9.2°F-12.7°C 74% Calm Calm -- 30.12 in1020.0 mb - 0.00 in0.0 mm 0.00 in0.0 mm
03:48 AM 16.2°F-8.8°C 9.4°F-12.6°C 74% Calm Calm -- 30.12 in1020.0 mb - 0.00 in0.0 mm 0.00 in0.0 mm
03:47 AM 16.3°F-8.7°C 9.5°F-12.5°C 74% Calm Calm -- 30.12 in1020.0 mb - 0.00 in0.0 mm 0.00 in0.0 mm
03:46 AM 16.3°F-8.7°C 9.5°F-12.5°C 74% Calm Calm -- 30.12 in1020.0 mb - 0.00 in0.0 mm 0.00 in0.0 mm
03:45 AM 16.4°F-8.7°C 9.6°F-12.4°C 74% Calm Calm -- 30.12 in1020.0 mb - 0.00 in0.0 mm 0.00 in0.0 mm
03:44 AM 16.5°F-8.6°C 9.6°F-12.4°C 74% Calm Calm -- 30.12 in1020.0 mb - 0.00 in0.0 mm 0.00 in0.0 mm
03:43 AM 16.6°F-8.6°C 9.7°F-12.4°C 74% Calm Calm -- 30.12 in1020.0 mb - 0.00 in0.0 mm 0.00 in0.0 mm
03:42 AM 16.6°F-8.6°C 9.8°F-12.3°C 74% Calm Calm -- 30.12 in1020.0 mb - 0.00 in0.0 mm 0.00 in0.0 mm
03:41 AM 16.7°F-8.5°C 9.9°F-12.3°C 74% Calm Calm -- 30.12 in1020.0 mb - 0.00 in0.0 mm 0.00 in0.0 mm
03:40 AM 16.8°F-8.4°C 9.9°F-12.3°C 74% Calm Calm -- 30.12 in1020.0 mb - 0.00 in0.0 mm 0.00 in0.0 mm
03:39 AM 16.9°F-8.4°C 10.0°F-12.2°C 74% Calm Calm -- 30.12 in1020.0 mb - 0.00 in0.0 mm 0.00 in0.0 mm
03:38 AM 16.9°F-8.4°C 10.1°F-12.2°C 74% Calm Calm -- 30.12 in1020.0 mb - 0.00 in0.0 mm 0.00 in0.0 mm
03:37 AM 17.0°F-8.3°C 9.9°F-12.3°C 73% Calm Calm -- 30.12 in1020.0 mb - 0.00 in0.0 mm 0.00 in0.0 mm
03:36 AM 17.1°F-8.3°C 10.0°F-12.2°C 73% Calm Calm -- 30.12 in1020.0 mb - 0.00 in0.0 mm 0.00 in0.0 mm
03:35 AM 17.2°F-8.2°C 10.0°F-12.2°C 73% Calm Calm -- 30.12 in1020.0 mb - 0.00 in0.0 mm 0.00 in0.0 mm
03:34 AM 17.2°F-8.2°C 10.1°F-12.2°C 73% Calm Calm -- 30.12 in1020.0 mb - 0.00 in0.0 mm 0.00 in0.0 mm
03:33 AM 17.4°F-8.1°C 10.2°F-12.1°C 73% Calm Calm -- 30.12 in1020.0 mb - 0.00 in0.0 mm 0.00 in0.0 mm
03:32 AM 17.5°F-8.1°C 10.3°F-12.1°C 73% Calm Calm -- 30.12 in1020.0 mb - 0.00 in0.0 mm 0.00 in0.0 mm
03:31 AM 17.5°F-8.1°C 10.4°F-12.0°C 73% Calm Calm -- 30.12 in1020.0 mb - 0.00 in0.0 mm 0.00 in0.0 mm
03:30 AM 17.6°F-8.0°C 10.4°F-12.0°C 73% Calm Calm -- 30.12 in1020.0 mb - 0.00 in0.0 mm 0.00 in0.0 mm
03:29 AM 17.6°F-8.0°C 10.4°F-12.0°C 73% Calm Calm -- 30.12 in1020.0 mb - 0.00 in0.0 mm 0.00 in0.0 mm
03:28 AM 17.7°F-7.9°C 10.5°F-11.9°C 73% Calm Calm -- 30.12 in1020.0 mb - 0.00 in0.0 mm 0.00 in0.0 mm
03:27 AM 17.8°F-7.9°C 10.6°F-11.9°C 73% Calm Calm -- 30.12 in1020.0 mb - 0.00 in0.0 mm 0.00 in0.0 mm
03:26 AM 17.8°F-7.9°C 10.7°F-11.8°C 73% Calm Calm -- 30.12 in1020.0 mb - 0.00 in0.0 mm 0.00 in0.0 mm
03:25 AM 17.9°F-7.8°C 10.7°F-11.8°C 73% Calm Calm -- 30.12 in1020.0 mb - 0.00 in0.0 mm 0.00 in0.0 mm
03:24 AM 17.9°F-7.8°C 10.8°F-11.8°C 73% Calm Calm -- 30.12 in1020.0 mb - 0.00 in0.0 mm 0.00 in0.0 mm
03:23 AM 18.0°F-7.8°C 10.8°F-11.8°C 73% Calm Calm -- 30.13 in1020.3 mb - 0.00 in0.0 mm 0.00 in0.0 mm
03:22 AM 18.0°F-7.8°C 10.8°F-11.8°C 73% Calm Calm -- 30.13 in1020.3 mb - 0.00 in0.0 mm 0.00 in0.0 mm
03:21 AM 18.1°F-7.7°C 10.9°F-11.7°C 73% Calm Calm -- 30.13 in1020.3 mb - 0.00 in0.0 mm 0.00 in0.0 mm
03:20 AM 18.1°F-7.7°C 10.9°F-11.7°C 73% Calm Calm -- 30.13 in1020.3 mb - 0.00 in0.0 mm 0.00 in0.0 mm
03:19 AM 18.1°F-7.7°C 10.9°F-11.7°C 73% Calm Calm -- 30.12 in1020.0 mb - 0.00 in0.0 mm 0.00 in0.0 mm
03:18 AM 18.2°F-7.7°C 11.0°F-11.7°C 73% Calm Calm -- 30.12 in1020.0 mb - 0.00 in0.0 mm 0.00 in0.0 mm
03:17 AM 18.2°F-7.7°C 11.0°F-11.7°C 73% Calm Calm -- 30.13 in1020.3 mb - 0.00 in0.0 mm 0.00 in0.0 mm
03:16 AM 18.2°F-7.7°C 11.0°F-11.7°C 73% Calm Calm -- 30.12 in1020.0 mb - 0.00 in0.0 mm 0.00 in0.0 mm
03:15 AM 18.2°F-7.7°C 11.0°F-11.7°C 73% Calm Calm -- 30.12 in1020.0 mb - 0.00 in0.0 mm 0.00 in0.0 mm
03:14 AM 18.2°F-7.7°C 11.0°F-11.7°C 73% Calm Calm -- 30.12 in1020.0 mb - 0.00 in0.0 mm 0.00 in0.0 mm
03:13 AM 18.3°F-7.6°C 11.1°F-11.6°C 73% Calm Calm -- 30.12 in1020.0 mb - 0.00 in0.0 mm 0.00 in0.0 mm
03:12 AM 18.2°F-7.7°C 11.0°F-11.7°C 73% Calm Calm -- 30.12 in1020.0 mb - 0.00 in0.0 mm 0.00 in0.0 mm
03:11 AM 18.2°F-7.7°C 11.0°F-11.7°C 73% Calm Calm -- 30.12 in1020.0 mb - 0.00 in0.0 mm 0.00 in0.0 mm
03:10 AM 18.2°F-7.7°C 10.7°F-11.8°C 72% Calm Calm -- 30.12 in1020.0 mb - 0.00 in0.0 mm 0.00 in0.0 mm
03:09 AM 18.3°F-7.6°C 10.8°F-11.8°C 72% Calm Calm -- 30.12 in1020.0 mb - 0.00 in0.0 mm 0.00 in0.0 mm
03:08 AM 18.3°F-7.6°C 10.8°F-11.8°C 72% Calm Calm -- 30.12 in1020.0 mb - 0.00 in0.0 mm 0.00 in0.0 mm
03:07 AM 18.3°F-7.6°C 10.8°F-11.8°C 72% Calm Calm -- 30.12 in1020.0 mb - 0.00 in0.0 mm 0.00 in0.0 mm
03:06 AM 18.3°F-7.6°C 10.8°F-11.8°C 72% Calm Calm -- 30.12 in1020.0 mb - 0.00 in0.0 mm 0.00 in0.0 mm
03:05 AM 18.3°F-7.6°C 10.8°F-11.8°C 72% Calm Calm -- 30.12 in1020.0 mb - 0.00 in0.0 mm 0.00 in0.0 mm
03:04 AM 18.3°F-7.6°C 10.8°F-11.8°C 72% Calm Calm -- 30.12 in1020.0 mb - 0.00 in0.0 mm 0.00 in0.0 mm
03:03 AM 18.4°F-7.6°C 10.8°F-11.8°C 72% Calm Calm -- 30.12 in1020.0 mb - 0.00 in0.0 mm 0.00 in0.0 mm
03:02 AM 18.4°F-7.6°C 10.8°F-11.8°C 72% Calm Calm 1.2 mph1.9 kmh 30.12 in1020.0 mb - 0.00 in0.0 mm 0.00 in0.0 mm
03:01 AM 18.3°F-7.6°C 10.8°F-11.8°C 72% Calm Calm 1.2 mph1.9 kmh 30.12 in1020.0 mb - 0.00 in0.0 mm 0.00 in0.0 mm
03:00 AM 18.3°F-7.6°C 10.8°F-11.8°C 72% Calm Calm -- 30.12 in1020.0 mb - 0.00 in0.0 mm 0.00 in0.0 mm
02:59 AM 18.3°F-7.6°C 10.8°F-11.8°C 72% Calm Calm -- 30.12 in1020.0 mb - 0.00 in0.0 mm 0.00 in0.0 mm
02:58 AM 18.3°F-7.6°C 10.8°F-11.8°C 72% Calm Calm -- 30.12 in1020.0 mb - 0.00 in0.0 mm 0.00 in0.0 mm
02:57 AM 18.3°F-7.6°C 10.5°F-11.9°C 71% Calm Calm -- 30.12 in1020.0 mb - 0.00 in0.0 mm 0.00 in0.0 mm
02:56 AM 18.3°F-7.6°C 10.5°F-11.9°C 71% Calm Calm -- 30.12 in1020.0 mb - 0.00 in0.0 mm 0.00 in0.0 mm
02:55 AM 18.3°F-7.6°C 10.5°F-11.9°C 71% Calm Calm -- 30.12 in1020.0 mb - 0.00 in0.0 mm 0.00 in0.0 mm
02:54 AM 18.4°F-7.6°C 10.6°F-11.9°C 71% Calm Calm -- 30.12 in1020.0 mb - 0.00 in0.0 mm 0.00 in0.0 mm
02:53 AM 18.4°F-7.6°C 10.6°F-11.9°C 71% Calm Calm -- 30.12 in1020.0 mb - 0.00 in0.0 mm 0.00 in0.0 mm
02:52 AM 18.4°F-7.6°C 10.6°F-11.9°C 71% Calm Calm -- 30.12 in1020.0 mb - 0.00 in0.0 mm 0.00 in0.0 mm
02:51 AM 18.4°F-7.6°C 10.6°F-11.9°C 71% Calm Calm -- 30.12 in1020.0 mb - 0.00 in0.0 mm 0.00 in0.0 mm
02:50 AM 18.5°F-7.5°C 10.3°F-12.1°C 70% Calm Calm -- 30.12 in1020.0 mb - 0.00 in0.0 mm 0.00 in0.0 mm
02:49 AM 18.5°F-7.5°C 10.4°F-12.0°C 70% Calm Calm -- 30.12 in1020.0 mb - 0.00 in0.0 mm 0.00 in0.0 mm
02:48 AM 18.6°F-7.4°C 10.4°F-12.0°C 70% Calm Calm -- 30.12 in1020.0 mb - 0.00 in0.0 mm 0.00 in0.0 mm
02:47 AM 18.7°F-7.4°C 10.5°F-11.9°C 70% Calm Calm -- 30.12 in1020.0 mb - 0.00 in0.0 mm 0.00 in0.0 mm
02:46 AM 18.8°F-7.3°C 10.6°F-11.9°C 70% Calm Calm -- 30.12 in1020.0 mb - 0.00 in0.0 mm 0.00 in0.0 mm
02:45 AM 18.8°F-7.3°C 10.7°F-11.8°C 70% Calm Calm -- 30.12 in1020.0 mb - 0.00 in0.0 mm 0.00 in0.0 mm
02:44 AM 18.9°F-7.3°C 10.7°F-11.8°C 70% Calm Calm -- 30.12 in1020.0 mb - 0.00 in0.0 mm 0.00 in0.0 mm
02:43 AM 19.0°F-7.2°C 10.5°F-11.9°C 69% Calm Calm -- 30.12 in1020.0 mb - 0.00 in0.0 mm 0.00 in0.0 mm
02:42 AM 19.1°F-7.2°C 10.6°F-11.9°C 69% Calm Calm -- 30.12 in1020.0 mb - 0.00 in0.0 mm 0.00 in0.0 mm
02:41 AM 19.2°F-7.1°C 10.7°F-11.8°C 69% Calm Calm -- 30.12 in1020.0 mb - 0.00 in0.0 mm 0.00 in0.0 mm
02:40 AM 19.4°F-7.0°C 10.8°F-11.8°C 69% Calm Calm -- 30.11 in1019.6 mb - 0.00 in0.0 mm 0.00 in0.0 mm
02:39 AM 19.5°F-6.9°C 10.6°F-11.9°C 68% Calm Calm -- 30.11 in1019.6 mb - 0.00 in0.0 mm 0.00 in0.0 mm
02:38 AM 19.6°F-6.9°C 10.8°F-11.8°C 68% Calm Calm -- 30.11 in1019.6 mb - 0.00 in0.0 mm 0.00 in0.0 mm
02:37 AM 19.7°F-6.8°C 10.8°F-11.8°C 68% Calm Calm -- 30.11 in1019.6 mb - 0.00 in0.0 mm 0.00 in0.0 mm
02:36 AM 19.7°F-6.8°C 10.6°F-11.9°C 67% Calm Calm -- 30.11 in1019.6 mb - 0.00 in0.0 mm 0.00 in0.0 mm
02:35 AM 19.9°F-6.7°C 10.7°F-11.8°C 67% Calm Calm -- 30.11 in1019.6 mb - 0.00 in0.0 mm 0.00 in0.0 mm
02:34 AM 20.0°F-6.7°C 10.8°F-11.8°C 67% Calm Calm -- 30.11 in1019.6 mb - 0.00 in0.0 mm 0.00 in0.0 mm
02:33 AM 20.2°F-6.6°C 11.0°F-11.7°C 67% Calm Calm -- 30.11 in1019.6 mb - 0.00 in0.0 mm 0.00 in0.0 mm
02:32 AM 20.3°F-6.5°C 11.0°F-11.7°C 67% Calm Calm -- 30.11 in1019.6 mb - 0.00 in0.0 mm 0.00 in0.0 mm
02:31 AM 20.4°F-6.4°C 11.2°F-11.6°C 67% Calm Calm -- 30.11 in1019.6 mb - 0.00 in0.0 mm 0.00 in0.0 mm
02:30 AM 20.5°F-6.4°C 11.3°F-11.5°C 67% Calm Calm -- 30.11 in1019.6 mb - 0.00 in0.0 mm 0.00 in0.0 mm
02:29 AM 20.6°F-6.3°C 11.4°F-11.4°C 67% Calm Calm -- 30.11 in1019.6 mb - 0.00 in0.0 mm 0.00 in0.0 mm
02:28 AM 20.8°F-6.2°C 11.5°F-11.4°C 67% Calm Calm -- 30.11 in1019.6 mb - 0.00 in0.0 mm 0.00 in0.0 mm
02:27 AM 20.9°F-6.2°C 11.6°F-11.3°C 67% Calm Calm -- 30.11 in1019.6 mb - 0.00 in0.0 mm 0.00 in0.0 mm
02:26 AM 21.0°F-6.1°C 11.4°F-11.4°C 66% Calm Calm -- 30.11 in1019.6 mb - 0.00 in0.0 mm 0.00 in0.0 mm
02:25 AM 21.1°F-6.1°C 11.5°F-11.4°C 66% Calm Calm -- 30.11 in1019.6 mb - 0.00 in0.0 mm 0.00 in0.0 mm
02:24 AM 21.2°F-6.0°C 11.6°F-11.3°C 66% Calm Calm -- 30.11 in1019.6 mb - 0.00 in0.0 mm 0.00 in0.0 mm
02:23 AM 21.3°F-5.9°C 11.7°F-11.3°C 66% Calm Calm -- 30.11 in1019.6 mb - 0.00 in0.0 mm 0.00 in0.0 mm
02:22 AM 21.4°F-5.9°C 11.8°F-11.2°C 66% Calm Calm -- 30.11 in1019.6 mb - 0.00 in0.0 mm 0.00 in0.0 mm
02:21 AM 21.6°F-5.8°C 12.0°F-11.1°C 66% Calm Calm -- 30.11 in1019.6 mb - 0.00 in0.0 mm 0.00 in0.0 mm
02:20 AM 21.7°F-5.7°C 11.8°F-11.2°C 65% Calm Calm -- 30.11 in1019.6 mb - 0.00 in0.0 mm 0.00 in0.0 mm
02:19 AM 21.8°F-5.7°C 11.9°F-11.2°C 65% Calm Calm -- 30.11 in1019.6 mb - 0.00 in0.0 mm 0.00 in0.0 mm
02:18 AM 21.9°F-5.6°C 12.0°F-11.1°C 65% Calm Calm -- 30.11 in1019.6 mb - 0.00 in0.0 mm 0.00 in0.0 mm
02:17 AM 22.0°F-5.6°C 12.1°F-11.1°C 65% Calm Calm -- 30.11 in1019.6 mb - 0.00 in0.0 mm 0.00 in0.0 mm
02:16 AM 22.1°F-5.5°C 12.2°F-11.0°C 65% Calm Calm -- 30.11 in1019.6 mb - 0.00 in0.0 mm 0.00 in0.0 mm
02:15 AM 22.2°F-5.4°C 12.3°F-10.9°C 65% Calm Calm -- 30.11 in1019.6 mb - 0.00 in0.0 mm 0.00 in0.0 mm
02:14 AM 22.3°F-5.4°C 12.4°F-10.9°C 65% Calm Calm -- 30.11 in1019.6 mb - 0.00 in0.0 mm 0.00 in0.0 mm
02:13 AM 22.4°F-5.3°C 12.4°F-10.9°C 65% Calm Calm -- 30.11 in1019.6 mb - 0.00 in0.0 mm 0.00 in0.0 mm
02:12 AM 22.5°F-5.3°C 12.2°F-11.0°C 64% Calm Calm -- 30.11 in1019.6 mb - 0.00 in0.0 mm 0.00 in0.0 mm
02:11 AM 22.6°F-5.2°C 12.2°F-11.0°C 64% Calm Calm -- 30.11 in1019.6 mb - 0.00 in0.0 mm 0.00 in0.0 mm
02:10 AM 22.6°F-5.2°C 12.3°F-10.9°C 64% Calm Calm -- 30.11 in1019.6 mb - 0.00 in0.0 mm 0.00 in0.0 mm
02:09 AM 22.7°F-5.2°C 12.3°F-10.9°C 64% Calm Calm -- 30.11 in1019.6 mb - 0.00 in0.0 mm 0.00 in0.0 mm
02:08 AM 22.8°F-5.1°C 12.4°F-10.9°C 64% Calm Calm -- 30.11 in1019.6 mb - 0.00 in0.0 mm 0.00 in0.0 mm
02:07 AM 22.9°F-5.1°C 12.5°F-10.8°C 64% Calm Calm -- 30.11 in1019.6 mb - 0.00 in0.0 mm 0.00 in0.0 mm
02:06 AM 22.9°F-5.1°C 12.5°F-10.8°C 64% Calm Calm -- 30.11 in1019.6 mb - 0.00 in0.0 mm 0.00 in0.0 mm
02:05 AM 22.9°F-5.1°C 12.5°F-10.8°C 64% Calm Calm -- 30.11 in1019.6 mb - 0.00 in0.0 mm 0.00 in0.0 mm
02:04 AM 23.0°F-5.0°C 12.6°F-10.8°C 64% Calm Calm -- 30.11 in1019.6 mb - 0.00 in0.0 mm 0.00 in0.0 mm
02:03 AM 23.0°F-5.0°C 12.6°F-10.8°C 64% Calm Calm -- 30.11 in1019.6 mb - 0.00 in0.0 mm 0.00 in0.0 mm
02:02 AM 23.1°F-4.9°C 12.7°F-10.7°C 64% Calm Calm -- 30.11 in1019.6 mb - 0.00 in0.0 mm 0.00 in0.0 mm
02:01 AM 23.1°F-4.9°C 12.7°F-10.7°C 64% Calm Calm -- 30.11 in1019.6 mb - 0.00 in0.0 mm 0.00 in0.0 mm
02:00 AM 23.1°F-4.9°C 12.7°F-10.7°C 64% Calm Calm -- 30.11 in1019.6 mb - 0.00 in0.0 mm 0.00 in0.0 mm
01:59 AM 23.1°F-4.9°C 12.7°F-10.7°C 64% Calm Calm -- 30.11 in1019.6 mb - 0.00 in0.0 mm 0.00 in0.0 mm
01:58 AM 23.1°F-4.9°C 12.7°F-10.7°C 64% Calm Calm -- 30.10 in1019.3 mb - 0.00 in0.0 mm 0.00 in0.0 mm
01:57 AM 23.1°F-4.9°C 12.7°F-10.7°C 64% Calm Calm -- 30.10 in1019.3 mb - 0.00 in0.0 mm 0.00 in0.0 mm
01:56 AM 23.1°F-4.9°C 12.7°F-10.7°C 64% Calm Calm 1.2 mph1.9 kmh 30.10 in1019.3 mb - 0.00 in0.0 mm 0.00 in0.0 mm
01:55 AM 23.1°F-4.9°C 12.7°F-10.7°C 64% Calm Calm 1.2 mph1.9 kmh 30.11 in1019.6 mb - 0.00 in0.0 mm 0.00 in0.0 mm
01:54 AM 23.0°F-5.0°C 12.6°F-10.8°C 64% Calm Calm -- 30.11 in1019.6 mb - 0.00 in0.0 mm 0.00 in0.0 mm
01:53 AM 23.0°F-5.0°C 12.6°F-10.8°C 64% Calm Calm 1.2 mph1.9 kmh 30.11 in1019.6 mb - 0.00 in0.0 mm 0.00 in0.0 mm
01:52 AM 23.0°F-5.0°C 12.6°F-10.8°C 64% Calm Calm 1.2 mph1.9 kmh 30.10 in1019.3 mb - 0.00 in0.0 mm 0.00 in0.0 mm
01:51 AM 22.9°F-5.1°C 12.5°F-10.8°C 64% 1.2 mph NE1.9 kmh NE 2.3 mph3.7 kmh 30.10 in1019.3 mb - 0.00 in0.0 mm 0.00 in0.0 mm
01:50 AM 22.9°F-5.1°C 12.5°F-10.8°C 64% 1.2 mph NE1.9 kmh NE 3.5 mph5.6 kmh 30.10 in1019.3 mb - 0.00 in0.0 mm 0.00 in0.0 mm
01:49 AM 22.9°F-5.1°C 12.5°F-10.8°C 64% Calm Calm 3.5 mph5.6 kmh 30.10 in1019.3 mb - 0.00 in0.0 mm 0.00 in0.0 mm
01:48 AM 22.9°F-5.1°C 12.5°F-10.8°C 64% Calm Calm 1.2 mph1.9 kmh 30.10 in1019.3 mb - 0.00 in0.0 mm 0.00 in0.0 mm
01:47 AM 22.9°F-5.1°C 12.5°F-10.8°C 64% Calm Calm 1.2 mph1.9 kmh 30.10 in1019.3 mb - 0.00 in0.0 mm 0.00 in0.0 mm
01:46 AM 22.8°F-5.1°C 12.4°F-10.9°C 64% Calm Calm 1.2 mph1.9 kmh 30.10 in1019.3 mb - 0.00 in0.0 mm 0.00 in0.0 mm
01:45 AM 22.9°F-5.1°C 12.5°F-10.8°C 64% Calm Calm 1.2 mph1.9 kmh 30.10 in1019.3 mb - 0.00 in0.0 mm 0.00 in0.0 mm
01:44 AM 22.9°F-5.1°C 12.5°F-10.8°C 64% Calm Calm 1.2 mph1.9 kmh 30.10 in1019.3 mb - 0.00 in0.0 mm 0.00 in0.0 mm
01:43 AM 22.8°F-5.1°C 12.8°F-10.7°C 65% Calm Calm 1.2 mph1.9 kmh 30.10 in1019.3 mb - 0.00 in0.0 mm 0.00 in0.0 mm
01:42 AM 22.8°F-5.1°C 12.8°F-10.7°C 65% Calm Calm 1.2 mph1.9 kmh 30.10 in1019.3 mb - 0.00 in0.0 mm 0.00 in0.0 mm
01:41 AM 22.8°F-5.1°C 12.8°F-10.7°C 65% Calm Calm -- 30.10 in1019.3 mb - 0.00 in0.0 mm 0.00 in0.0 mm
01:40 AM 22.8°F-5.1°C 12.8°F-10.7°C 65% Calm Calm -- 30.10 in1019.3 mb - 0.00 in0.0 mm 0.00 in0.0 mm
01:39 AM 22.7°F-5.2°C 12.7°F-10.7°C 65% Calm Calm 1.2 mph1.9 kmh 30.10 in1019.3 mb - 0.00 in0.0 mm 0.00 in0.0 mm
01:38 AM 22.6°F-5.2°C 12.6°F-10.8°C 65% 1.2 mph ENE1.9 kmh ENE 2.3 mph3.7 kmh 30.10 in1019.3 mb - 0.00 in0.0 mm 0.00 in0.0 mm
01:37 AM 22.6°F-5.2°C 12.6°F-10.8°C 65% Calm Calm 2.3 mph3.7 kmh 30.10 in1019.3 mb - 0.00 in0.0 mm 0.00 in0.0 mm
01:36 AM 22.5°F-5.3°C 12.5°F-10.8°C 65% Calm Calm 1.2 mph1.9 kmh 30.09 in1019.0 mb - 0.00 in0.0 mm 0.00 in0.0 mm
01:35 AM 22.5°F-5.3°C 12.5°F-10.8°C 65% 1.2 mph NE1.9 kmh NE 2.3 mph3.7 kmh 30.09 in1019.0 mb - 0.00 in0.0 mm 0.00 in0.0 mm
01:34 AM 22.4°F-5.3°C 12.4°F-10.9°C 65% 1.2 mph NE1.9 kmh NE 2.3 mph3.7 kmh 30.09 in1019.0 mb - 0.00 in0.0 mm 0.00 in0.0 mm
01:33 AM 22.3°F-5.4°C 12.3°F-10.9°C 65% 1.2 mph NE1.9 kmh NE 2.3 mph3.7 kmh 30.09 in1019.0 mb - 0.00 in0.0 mm 0.00 in0.0 mm
01:32 AM 22.2°F-5.4°C 12.6°F-10.8°C 66% Calm Calm 1.2 mph1.9 kmh 30.09 in1019.0 mb - 0.00 in0.0 mm 0.00 in0.0 mm
01:31 AM 22.1°F-5.5°C 12.5°F-10.8°C 66% Calm Calm 1.2 mph1.9 kmh 30.09 in1019.0 mb - 0.00 in0.0 mm 0.00 in0.0 mm
01:30 AM 22.1°F-5.5°C 12.4°F-10.9°C 66% Calm Calm 1.2 mph1.9 kmh 30.09 in1019.0 mb - 0.00 in0.0 mm 0.00 in0.0 mm
01:29 AM 22.0°F-5.6°C 12.3°F-10.9°C 66% Calm Calm 1.2 mph1.9 kmh 30.09 in1019.0 mb - 0.00 in0.0 mm 0.00 in0.0 mm
01:28 AM 21.9°F-5.6°C 12.2°F-11.0°C 66% 1.2 mph ENE1.9 kmh ENE 1.2 mph1.9 kmh 30.09 in1019.0 mb - 0.00 in0.0 mm 0.00 in0.0 mm
01:27 AM 21.8°F-5.7°C 12.1°F-11.1°C 66% 1.2 mph ENE1.9 kmh ENE 2.3 mph3.7 kmh 30.09 in1019.0 mb - 0.00 in0.0 mm 0.00 in0.0 mm
01:26 AM 21.7°F-5.7°C 12.4°F-10.9°C 67% 1.2 mph ENE1.9 kmh ENE 3.5 mph5.6 kmh 30.09 in1019.0 mb - 0.00 in0.0 mm 0.00 in0.0 mm
01:25 AM 21.6°F-5.8°C 12.3°F-10.9°C 67% 1.2 mph NE1.9 kmh NE 3.5 mph5.6 kmh 30.09 in1019.0 mb - 0.00 in0.0 mm 0.00 in0.0 mm
01:24 AM 21.5°F-5.8°C 12.3°F-10.9°C 67% 1.2 mph NE1.9 kmh NE 1.2 mph1.9 kmh 30.09 in1019.0 mb - 0.00 in0.0 mm 0.00 in0.0 mm
01:23 AM 21.5°F-5.8°C 12.2°F-11.0°C 67% Calm Calm 1.2 mph1.9 kmh 30.09 in1019.0 mb - 0.00 in0.0 mm 0.00 in0.0 mm
01:22 AM 21.4°F-5.9°C 12.2°F-11.0°C 67% Calm Calm 1.2 mph1.9 kmh 30.09 in1019.0 mb - 0.00 in0.0 mm 0.00 in0.0 mm
01:21 AM 21.4°F-5.9°C 12.1°F-11.1°C 67% Calm Calm 1.2 mph1.9 kmh 30.09 in1019.0 mb - 0.00 in0.0 mm 0.00 in0.0 mm
01:20 AM 21.3°F-5.9°C 12.1°F-11.1°C 67% Calm Calm 2.3 mph3.7 kmh 30.09 in1019.0 mb - 0.00 in0.0 mm 0.00 in0.0 mm
01:19 AM 21.3°F-5.9°C 12.0°F-11.1°C 67% Calm Calm 2.3 mph3.7 kmh 30.09 in1019.0 mb - 0.00 in0.0 mm 0.00 in0.0 mm
01:18 AM 21.3°F-5.9°C 12.0°F-11.1°C 67% Calm Calm 1.2 mph1.9 kmh 30.09 in1019.0 mb - 0.00 in0.0 mm 0.00 in0.0 mm
01:17 AM 21.3°F-5.9°C 12.0°F-11.1°C 67% Calm Calm 3.5 mph5.6 kmh 30.09 in1019.0 mb - 0.00 in0.0 mm 0.00 in0.0 mm
01:16 AM 21.2°F-6.0°C 12.0°F-11.1°C 67% Calm Calm 3.5 mph5.6 kmh 30.09 in1019.0 mb - 0.00 in0.0 mm 0.00 in0.0 mm
01:15 AM 21.2°F-6.0°C 12.2°F-11.0°C 68% Calm Calm 1.2 mph1.9 kmh 30.09 in1019.0 mb - 0.00 in0.0 mm 0.00 in0.0 mm
01:14 AM 21.1°F-6.1°C 12.2°F-11.0°C 68% Calm Calm 1.2 mph1.9 kmh 30.09 in1019.0 mb - 0.00 in0.0 mm 0.00 in0.0 mm
01:13 AM 21.1°F-6.1°C 12.1°F-11.1°C 68% Calm Calm 2.3 mph3.7 kmh 30.09 in1019.0 mb - 0.00 in0.0 mm 0.00 in0.0 mm
01:12 AM 21.0°F-6.1°C 12.1°F-11.1°C 68% Calm Calm 2.3 mph3.7 kmh 30.09 in1019.0 mb - 0.00 in0.0 mm 0.00 in0.0 mm
01:11 AM 20.9°F-6.2°C 12.0°F-11.1°C 68% Calm Calm 1.2 mph1.9 kmh 30.09 in1019.0 mb - 0.00 in0.0 mm 0.00 in0.0 mm
01:10 AM 20.9°F-6.2°C 11.9°F-11.2°C 68% Calm Calm -- 30.09 in1019.0 mb - 0.00 in0.0 mm 0.00 in0.0 mm
01:09 AM 20.8°F-6.2°C 11.9°F-11.2°C 68% Calm Calm 1.2 mph1.9 kmh 30.09 in1019.0 mb - 0.00 in0.0 mm 0.00 in0.0 mm
01:08 AM 20.7°F-6.3°C 12.2°F-11.0°C 69% Calm Calm 1.2 mph1.9 kmh 30.09 in1019.0 mb - 0.00 in0.0 mm 0.00 in0.0 mm
01:07 AM 20.7°F-6.3°C 12.1°F-11.1°C 69% Calm Calm 1.2 mph1.9 kmh 30.09 in1019.0 mb - 0.00 in0.0 mm 0.00 in0.0 mm
01:06 AM 20.6°F-6.3°C 12.1°F-11.1°C 69% Calm Calm 1.2 mph1.9 kmh 30.09 in1019.0 mb - 0.00 in0.0 mm 0.00 in0.0 mm
01:05 AM 20.6°F-6.3°C 12.0°F-11.1°C 69% Calm Calm 1.2 mph1.9 kmh 30.09 in1019.0 mb - 0.00 in0.0 mm 0.00 in0.0 mm
01:04 AM 20.5°F-6.4°C 11.9°F-11.2°C 69% Calm Calm 1.2 mph1.9 kmh 30.09 in1019.0 mb - 0.00 in0.0 mm 0.00 in0.0 mm
01:03 AM 20.4°F-6.4°C 11.9°F-11.2°C 69% Calm Calm 1.2 mph1.9 kmh 30.09 in1019.0 mb - 0.00 in0.0 mm 0.00 in0.0 mm
01:02 AM 20.4°F-6.4°C 11.8°F-11.2°C 69% Calm Calm -- 30.09 in1019.0 mb - 0.00 in0.0 mm 0.00 in0.0 mm
01:01 AM 20.3°F-6.5°C 11.8°F-11.2°C 69% Calm Calm 1.2 mph1.9 kmh 30.09 in1019.0 mb - 0.00 in0.0 mm 0.00 in0.0 mm
01:00 AM 20.3°F-6.5°C 12.1°F-11.1°C 70% Calm Calm 1.2 mph1.9 kmh 30.09 in1019.0 mb - 0.00 in0.0 mm 0.00 in0.0 mm
12:59 AM 20.2°F-6.6°C 12.0°F-11.1°C 70% Calm Calm 1.2 mph1.9 kmh 30.09 in1019.0 mb - 0.00 in0.0 mm 0.00 in0.0 mm
12:58 AM 20.2°F-6.6°C 12.0°F-11.1°C 70% Calm Calm 1.2 mph1.9 kmh 30.09 in1019.0 mb - 0.00 in0.0 mm 0.00 in0.0 mm
12:57 AM 20.1°F-6.6°C 11.9°F-11.2°C 70% Calm Calm -- 30.09 in1019.0 mb - 0.00 in0.0 mm 0.00 in0.0 mm
12:56 AM 20.1°F-6.6°C 11.8°F-11.2°C 70% Calm Calm 1.2 mph1.9 kmh 30.09 in1019.0 mb - 0.00 in0.0 mm 0.00 in0.0 mm
12:55 AM 20.0°F-6.7°C 12.1°F-11.1°C 71% Calm Calm 1.2 mph1.9 kmh 30.09 in1019.0 mb - 0.00 in0.0 mm 0.00 in0.0 mm
12:54 AM 19.9°F-6.7°C 12.0°F-11.1°C 71% Calm Calm -- 30.09 in1019.0 mb - 0.00 in0.0 mm 0.00 in0.0 mm
12:53 AM 19.8°F-6.8°C 11.9°F-11.2°C 71% Calm Calm -- 30.09 in1019.0 mb - 0.00 in0.0 mm 0.00 in0.0 mm
12:52 AM 19.7°F-6.8°C 11.8°F-11.2°C 71% Calm Calm -- 30.09 in1019.0 mb - 0.00 in0.0 mm 0.00 in0.0 mm
12:51 AM 19.7°F-6.8°C 11.8°F-11.2°C 71% Calm Calm -- 30.09 in1019.0 mb - 0.00 in0.0 mm 0.00 in0.0 mm
12:50 AM 19.7°F-6.8°C 11.8°F-11.2°C 71% Calm Calm -- 30.09 in1019.0 mb - 0.00 in0.0 mm 0.00 in0.0 mm
12:49 AM 19.6°F-6.9°C 11.7°F-11.3°C 71% Calm Calm -- 30.09 in1019.0 mb - 0.00 in0.0 mm 0.00 in0.0 mm
12:48 AM 19.5°F-6.9°C 11.9°F-11.2°C 72% Calm Calm -- 30.09 in1019.0 mb - 0.00 in0.0 mm 0.00 in0.0 mm
12:47 AM 19.4°F-7.0°C 11.8°F-11.2°C 72% Calm Calm 1.2 mph1.9 kmh 30.09 in1019.0 mb - 0.00 in0.0 mm 0.00 in0.0 mm
12:46 AM 19.3°F-7.1°C 11.7°F-11.3°C 72% Calm Calm 1.2 mph1.9 kmh 30.09 in1019.0 mb - 0.00 in0.0 mm 0.00 in0.0 mm
12:45 AM 19.2°F-7.1°C 11.7°F-11.3°C 72% Calm Calm -- 30.09 in1019.0 mb - 0.00 in0.0 mm 0.00 in0.0 mm
12:44 AM 19.2°F-7.1°C 11.6°F-11.3°C 72% Calm Calm -- 30.09 in1019.0 mb - 0.00 in0.0 mm 0.00 in0.0 mm
12:43 AM 19.1°F-7.2°C 11.8°F-11.2°C 73% Calm Calm 1.2 mph1.9 kmh 30.09 in1019.0 mb - 0.00 in0.0 mm 0.00 in0.0 mm
12:42 AM 19.0°F-7.2°C 11.8°F-11.2°C 73% Calm Calm 2.3 mph3.7 kmh 30.08 in1018.6 mb - 0.00 in0.0 mm 0.00 in0.0 mm
12:41 AM 18.9°F-7.3°C 11.7°F-11.3°C 73% Calm Calm 2.3 mph3.7 kmh 30.08 in1018.6 mb - 0.00 in0.0 mm 0.00 in0.0 mm
12:40 AM 18.8°F-7.3°C 11.6°F-11.3°C 73% Calm Calm -- 30.08 in1018.6 mb - 0.00 in0.0 mm 0.00 in0.0 mm
12:39 AM 18.7°F-7.4°C 11.8°F-11.2°C 74% Calm Calm -- 30.08 in1018.6 mb - 0.00 in0.0 mm 0.00 in0.0 mm
12:38 AM 18.6°F-7.4°C 11.7°F-11.3°C 74% Calm Calm -- 30.08 in1018.6 mb - 0.00 in0.0 mm 0.00 in0.0 mm
12:37 AM 18.5°F-7.5°C 11.6°F-11.3°C 74% Calm Calm 1.2 mph1.9 kmh 30.08 in1018.6 mb - 0.00 in0.0 mm 0.00 in0.0 mm
12:36 AM 18.4°F-7.6°C 11.8°F-11.2°C 75% Calm Calm 1.2 mph1.9 kmh 30.08 in1018.6 mb - 0.00 in0.0 mm 0.00 in0.0 mm
12:35 AM 18.2°F-7.7°C 11.6°F-11.3°C 75% Calm Calm -- 30.08 in1018.6 mb - 0.00 in0.0 mm 0.00 in0.0 mm
12:34 AM 18.1°F-7.7°C 11.5°F-11.4°C 75% Calm Calm -- 30.08 in1018.6 mb - 0.00 in0.0 mm 0.00 in0.0 mm
12:33 AM 18.0°F-7.8°C 11.7°F-11.3°C 76% Calm Calm -- 30.08 in1018.6 mb - 0.00 in0.0 mm 0.00 in0.0 mm
12:32 AM 17.8°F-7.9°C 11.5°F-11.4°C 76% Calm Calm 1.2 mph1.9 kmh 30.08 in1018.6 mb - 0.00 in0.0 mm 0.00 in0.0 mm
12:31 AM 17.6°F-8.0°C 11.6°F-11.3°C 77% Calm Calm 2.3 mph3.7 kmh 30.08 in1018.6 mb - 0.00 in0.0 mm 0.00 in0.0 mm
12:30 AM 17.4°F-8.1°C 11.4°F-11.4°C 77% Calm Calm 2.3 mph3.7 kmh 30.08 in1018.6 mb - 0.00 in0.0 mm 0.00 in0.0 mm
12:29 AM 17.3°F-8.2°C 11.3°F-11.5°C 77% Calm Calm -- 30.08 in1018.6 mb - 0.00 in0.0 mm 0.00 in0.0 mm
12:28 AM 17.1°F-8.3°C 11.1°F-11.6°C 77% Calm Calm -- 30.08 in1018.6 mb - 0.00 in0.0 mm 0.00 in0.0 mm
12:27 AM 17.0°F-8.3°C 11.3°F-11.5°C 78% Calm Calm -- 30.08 in1018.6 mb - 0.00 in0.0 mm 0.00 in0.0 mm
12:26 AM 16.8°F-8.4°C 11.2°F-11.6°C 78% Calm Calm -- 30.08 in1018.6 mb - 0.00 in0.0 mm 0.00 in0.0 mm
12:25 AM 16.6°F-8.6°C 11.3°F-11.5°C 79% Calm Calm -- 30.07 in1018.3 mb - 0.00 in0.0 mm 0.00 in0.0 mm
12:24 AM 16.5°F-8.6°C 11.1°F-11.6°C 79% Calm Calm 1.2 mph1.9 kmh 30.07 in1018.3 mb - 0.00 in0.0 mm 0.00 in0.0 mm
12:23 AM 16.3°F-8.7°C 10.9°F-11.7°C 79% Calm Calm 1.2 mph1.9 kmh 30.07 in1018.3 mb - 0.00 in0.0 mm 0.00 in0.0 mm
12:22 AM 16.1°F-8.8°C 10.7°F-11.8°C 79% Calm Calm -- 30.07 in1018.3 mb - 0.00 in0.0 mm 0.00 in0.0 mm
12:21 AM 16.0°F-8.9°C 10.6°F-11.9°C 79% Calm Calm 2.3 mph3.7 kmh 30.07 in1018.3 mb - 0.00 in0.0 mm 0.00 in0.0 mm
12:20 AM 15.9°F-8.9°C 10.5°F-11.9°C 79% Calm Calm 2.3 mph3.7 kmh 30.07 in1018.3 mb - 0.00 in0.0 mm 0.00 in0.0 mm
12:19 AM 15.8°F-9.0°C 10.4°F-12.0°C 79% Calm Calm -- 30.07 in1018.3 mb - 0.00 in0.0 mm 0.00 in0.0 mm
12:18 AM 15.7°F-9.1°C 10.3°F-12.1°C 79% Calm Calm -- 30.07 in1018.3 mb - 0.00 in0.0 mm 0.00 in0.0 mm
12:17 AM 15.6°F-9.1°C 10.2°F-12.1°C 79% Calm Calm -- 30.07 in1018.3 mb - 0.00 in0.0 mm 0.00 in0.0 mm
12:16 AM 15.4°F-9.2°C 10.1°F-12.2°C 79% Calm Calm -- 30.07 in1018.3 mb - 0.00 in0.0 mm 0.00 in0.0 mm
12:15 AM 15.3°F-9.3°C 10.0°F-12.2°C 79% Calm Calm -- 30.07 in1018.3 mb - 0.00 in0.0 mm 0.00 in0.0 mm
12:14 AM 15.3°F-9.3°C 9.9°F-12.3°C 79% Calm Calm 1.2 mph1.9 kmh 30.07 in1018.3 mb - 0.00 in0.0 mm 0.00 in0.0 mm
12:13 AM 15.2°F-9.3°C 9.8°F-12.3°C 79% Calm Calm 1.2 mph1.9 kmh 30.07 in1018.3 mb - 0.00 in0.0 mm 0.00 in0.0 mm
12:12 AM 15.1°F-9.4°C 9.8°F-12.3°C 79% Calm Calm -- 30.06 in1017.9 mb - 0.00 in0.0 mm 0.00 in0.0 mm
12:11 AM 15.1°F-9.4°C 9.7°F-12.4°C 79% Calm Calm -- 30.06 in1017.9 mb - 0.00 in0.0 mm 0.00 in0.0 mm
12:10 AM 15.0°F-9.4°C 9.6°F-12.4°C 79% Calm Calm 1.2 mph1.9 kmh 30.07 in1018.3 mb - 0.00 in0.0 mm 0.00 in0.0 mm
12:09 AM 14.9°F-9.5°C 9.6°F-12.4°C 79% Calm Calm 1.2 mph1.9 kmh 30.07 in1018.3 mb - 0.00 in0.0 mm 0.00 in0.0 mm
12:08 AM 14.9°F-9.5°C 9.6°F-12.4°C 79% Calm Calm -- 30.07 in1018.3 mb - 0.00 in0.0 mm 0.00 in0.0 mm
12:07 AM 14.9°F-9.5°C 9.5°F-12.5°C 79% Calm Calm -- 30.07 in1018.3 mb - 0.00 in0.0 mm 0.00 in0.0 mm
12:06 AM 14.9°F-9.5°C 9.5°F-12.5°C 79% Calm Calm -- 30.07 in1018.3 mb - 0.00 in0.0 mm 0.00 in0.0 mm
12:05 AM 14.8°F-9.6°C 9.5°F-12.5°C 79% Calm Calm -- 30.07 in1018.3 mb - 0.00 in0.0 mm 0.00 in0.0 mm
12:04 AM 14.8°F-9.6°C 9.5°F-12.5°C 79% Calm Calm -- 30.07 in1018.3 mb - 0.00 in0.0 mm 0.00 in0.0 mm
12:03 AM 14.8°F-9.6°C 9.5°F-12.5°C 79% Calm Calm -- 30.07 in1018.3 mb - 0.00 in0.0 mm 0.00 in0.0 mm
12:02 AM 14.8°F-9.6°C 9.2°F-12.7°C 78% Calm Calm -- 30.07 in1018.3 mb - 0.00 in0.0 mm 0.00 in0.0 mm
12:01 AM 14.8°F-9.6°C 9.2°F-12.7°C 78% Calm Calm -- 30.07 in1018.3 mb - 0.00 in0.0 mm 0.00 in0.0 mm
12:00 AM 14.8°F-9.6°C 9.2°F-12.7°C 78% Calm Calm -- 30.07 in1018.3 mb - 0.00 in0.0 mm 0.00 in0.0 mm